sensor_id;sensor_type;location;lat;lon;timestamp;P1;durP1;ratioP1;P2;durP2;ratioP2
77262;SDS011;66373;52.334;4.806;2023-05-02T00:01:39;5.93;;;4.90;;
77262;SDS011;66373;52.334;4.806;2023-05-02T00:04:06;5.93;;;4.65;;
77262;SDS011;66373;52.334;4.806;2023-05-02T00:06:33;5.43;;;4.38;;
77262;SDS011;66373;52.334;4.806;2023-05-02T00:09:00;5.53;;;4.28;;
77262;SDS011;66373;52.334;4.806;2023-05-02T00:11:29;5.47;;;4.05;;
77262;SDS011;66373;52.334;4.806;2023-05-02T00:13:57;4.57;;;4.18;;
77262;SDS011;66373;52.334;4.806;2023-05-02T00:16:24;5.10;;;4.60;;
77262;SDS011;66373;52.334;4.806;2023-05-02T00:18:52;5.53;;;4.70;;
77262;SDS011;66373;52.334;4.806;2023-05-02T00:21:19;5.40;;;4.60;;
77262;SDS011;66373;52.334;4.806;2023-05-02T00:23:46;4.35;;;4.05;;
77262;SDS011;66373;52.334;4.806;2023-05-02T00:26:13;4.43;;;4.03;;
77262;SDS011;66373;52.334;4.806;2023-05-02T00:28:41;4.68;;;4.25;;
77262;SDS011;66373;52.334;4.806;2023-05-02T00:31:09;4.68;;;4.25;;
77262;SDS011;66373;52.334;4.806;2023-05-02T00:33:36;4.50;;;4.10;;
77262;SDS011;66373;52.334;4.806;2023-05-02T00:36:03;4.82;;;4.43;;
77262;SDS011;66373;52.334;4.806;2023-05-02T00:38:30;4.90;;;4.40;;
77262;SDS011;66373;52.334;4.806;2023-05-02T00:40:57;4.53;;;4.13;;
77262;SDS011;66373;52.334;4.806;2023-05-02T00:43:24;4.57;;;4.15;;
77262;SDS011;66373;52.334;4.806;2023-05-02T00:45:56;4.53;;;4.15;;
77262;SDS011;66373;52.334;4.806;2023-05-02T00:48:25;4.78;;;4.38;;
77262;SDS011;66373;52.334;4.806;2023-05-02T00:50:53;4.22;;;3.83;;
77262;SDS011;66373;52.334;4.806;2023-05-02T00:53:21;4.18;;;3.85;;
77262;SDS011;66373;52.334;4.806;2023-05-02T00:55:48;4.38;;;3.97;;
77262;SDS011;66373;52.334;4.806;2023-05-02T00:58:16;4.00;;;3.70;;
77262;SDS011;66373;52.334;4.806;2023-05-02T01:00:58;4.20;;;3.88;;
77262;SDS011;66373;52.334;4.806;2023-05-02T01:03:37;4.28;;;3.88;;
77262;SDS011;66373;52.334;4.806;2023-05-02T01:06:16;4.13;;;3.67;;
77262;SDS011;66373;52.334;4.806;2023-05-02T01:08:55;4.20;;;3.75;;
77262;SDS011;66373;52.334;4.806;2023-05-02T01:11:30;6.20;;;4.20;;
77262;SDS011;66373;52.334;4.806;2023-05-02T01:14:04;3.92;;;3.63;;
77262;SDS011;66373;52.334;4.806;2023-05-02T01:16:34;4.32;;;4.00;;
77262;SDS011;66373;52.334;4.806;2023-05-02T01:19:11;4.20;;;3.88;;
77262;SDS011;66373;52.334;4.806;2023-05-02T01:21:47;3.78;;;3.45;;
77262;SDS011;66373;52.334;4.806;2023-05-02T01:24:18;4.40;;;4.00;;
77262;SDS011;66373;52.334;4.806;2023-05-02T01:26:51;4.28;;;3.55;;
77262;SDS011;66373;52.334;4.806;2023-05-02T01:29:30;3.92;;;3.53;;
77262;SDS011;66373;52.334;4.806;2023-05-02T01:31:58;3.72;;;3.42;;
77262;SDS011;66373;52.334;4.806;2023-05-02T01:34:28;5.53;;;3.70;;
77262;SDS011;66373;52.334;4.806;2023-05-02T01:36:57;4.38;;;3.85;;
77262;SDS011;66373;52.334;4.806;2023-05-02T01:39:28;4.82;;;3.72;;
77262;SDS011;66373;52.334;4.806;2023-05-02T01:41:56;4.15;;;3.75;;
77262;SDS011;66373;52.334;4.806;2023-05-02T01:44:28;3.80;;;3.40;;
77262;SDS011;66373;52.334;4.806;2023-05-02T01:47:01;4.32;;;3.40;;
77262;SDS011;66373;52.334;4.806;2023-05-02T01:49:32;3.58;;;3.28;;
77262;SDS011;66373;52.334;4.806;2023-05-02T01:52:03;3.75;;;3.45;;
77262;SDS011;66373;52.334;4.806;2023-05-02T01:54:35;4.40;;;3.42;;
77262;SDS011;66373;52.334;4.806;2023-05-02T01:57:03;3.60;;;3.30;;
77262;SDS011;66373;52.334;4.806;2023-05-02T01:59:34;5.85;;;3.20;;
77262;SDS011;66373;52.334;4.806;2023-05-02T02:02:02;3.70;;;3.28;;
77262;SDS011;66373;52.334;4.806;2023-05-02T02:04:31;3.80;;;3.50;;
77262;SDS011;66373;52.334;4.806;2023-05-02T02:07:01;3.67;;;3.40;;
77262;SDS011;66373;52.334;4.806;2023-05-02T02:09:31;4.25;;;3.55;;
77262;SDS011;66373;52.334;4.806;2023-05-02T02:12:01;4.47;;;3.33;;
77262;SDS011;66373;52.334;4.806;2023-05-02T02:17:05;3.70;;;3.00;;
77262;SDS011;66373;52.334;4.806;2023-05-02T02:19:38;3.63;;;3.25;;
77262;SDS011;66373;52.334;4.806;2023-05-02T02:22:07;5.05;;;3.42;;
77262;SDS011;66373;52.334;4.806;2023-05-02T02:24:36;3.78;;;3.42;;
77262;SDS011;66373;52.334;4.806;2023-05-02T02:27:04;4.00;;;3.10;;
77262;SDS011;66373;52.334;4.806;2023-05-02T02:29:33;3.55;;;3.13;;
77262;SDS011;66373;52.334;4.806;2023-05-02T02:32:00;5.15;;;3.33;;
77262;SDS011;66373;52.334;4.806;2023-05-02T02:34:27;4.97;;;2.80;;
77262;SDS011;66373;52.334;4.806;2023-05-02T02:36:56;3.35;;;3.10;;
77262;SDS011;66373;52.334;4.806;2023-05-02T02:39:33;3.38;;;3.08;;
77262;SDS011;66373;52.334;4.806;2023-05-02T02:42:11;3.20;;;2.90;;
77262;SDS011;66373;52.334;4.806;2023-05-02T02:44:45;3.78;;;3.28;;
77262;SDS011;66373;52.334;4.806;2023-05-02T02:47:22;3.00;;;2.72;;
77262;SDS011;66373;52.334;4.806;2023-05-02T02:49:59;3.22;;;2.80;;
77262;SDS011;66373;52.334;4.806;2023-05-02T02:52:39;4.00;;;3.28;;
77262;SDS011;66373;52.334;4.806;2023-05-02T02:55:19;2.80;;;2.60;;
77262;SDS011;66373;52.334;4.806;2023-05-02T02:57:57;2.95;;;2.60;;
77262;SDS011;66373;52.334;4.806;2023-05-02T03:00:27;2.72;;;2.42;;
77262;SDS011;66373;52.334;4.806;2023-05-02T03:02:55;2.90;;;2.70;;
77262;SDS011;66373;52.334;4.806;2023-05-02T03:05:22;2.90;;;2.70;;
77262;SDS011;66373;52.334;4.806;2023-05-02T03:07:50;3.50;;;2.80;;
77262;SDS011;66373;52.334;4.806;2023-05-02T03:10:21;3.72;;;2.70;;
77262;SDS011;66373;52.334;4.806;2023-05-02T03:12:48;3.10;;;2.65;;
77262;SDS011;66373;52.334;4.806;2023-05-02T03:15:27;2.88;;;2.67;;
77262;SDS011;66373;52.334;4.806;2023-05-02T03:18:14;3.13;;;2.72;;
77262;SDS011;66373;52.334;4.806;2023-05-02T03:20:41;2.95;;;2.30;;
77262;SDS011;66373;52.334;4.806;2023-05-02T03:23:08;2.50;;;2.00;;
77262;SDS011;66373;52.334;4.806;2023-05-02T03:25:36;2.58;;;2.38;;
77262;SDS011;66373;52.334;4.806;2023-05-02T03:28:04;3.33;;;2.60;;
77262;SDS011;66373;52.334;4.806;2023-05-02T03:30:31;3.00;;;2.80;;
77262;SDS011;66373;52.334;4.806;2023-05-02T03:32:59;4.50;;;3.00;;
77262;SDS011;66373;52.334;4.806;2023-05-02T03:35:29;2.50;;;2.30;;
77262;SDS011;66373;52.334;4.806;2023-05-02T03:37:57;2.78;;;2.58;;
77262;SDS011;66373;52.334;4.806;2023-05-02T03:40:24;3.72;;;2.63;;
77262;SDS011;66373;52.334;4.806;2023-05-02T03:42:54;2.55;;;2.30;;
77262;SDS011;66373;52.334;4.806;2023-05-02T03:45:27;3.05;;;2.80;;
77262;SDS011;66373;52.334;4.806;2023-05-02T03:47:54;2.30;;;2.10;;
77262;SDS011;66373;52.334;4.806;2023-05-02T03:50:23;3.40;;;2.13;;
77262;SDS011;66373;52.334;4.806;2023-05-02T03:52:51;2.35;;;2.15;;
77262;SDS011;66373;52.334;4.806;2023-05-02T03:55:27;3.15;;;2.20;;
77262;SDS011;66373;52.334;4.806;2023-05-02T03:57:55;3.15;;;2.30;;
77262;SDS011;66373;52.334;4.806;2023-05-02T04:00:22;4.57;;;2.60;;
77262;SDS011;66373;52.334;4.806;2023-05-02T04:02:58;3.55;;;2.30;;
77262;SDS011;66373;52.334;4.806;2023-05-02T04:05:28;2.40;;;2.25;;
77262;SDS011;66373;52.334;4.806;2023-05-02T04:07:55;2.33;;;2.10;;
77262;SDS011;66373;52.334;4.806;2023-05-02T04:10:23;2.72;;;2.13;;
77262;SDS011;66373;52.334;4.806;2023-05-02T04:12:54;2.50;;;2.20;;
77262;SDS011;66373;52.334;4.806;2023-05-02T04:15:21;1.95;;;1.85;;
77262;SDS011;66373;52.334;4.806;2023-05-02T04:17:51;3.15;;;2.40;;
77262;SDS011;66373;52.334;4.806;2023-05-02T04:20:19;2.35;;;2.10;;
77262;SDS011;66373;52.334;4.806;2023-05-02T04:22:50;2.47;;;2.28;;
77262;SDS011;66373;52.334;4.806;2023-05-02T04:25:18;3.45;;;2.40;;
77262;SDS011;66373;52.334;4.806;2023-05-02T04:27:45;2.47;;;2.10;;
77262;SDS011;66373;52.334;4.806;2023-05-02T04:30:16;2.38;;;2.03;;
77262;SDS011;66373;52.334;4.806;2023-05-02T04:32:51;2.08;;;1.85;;
77262;SDS011;66373;52.334;4.806;2023-05-02T04:35:19;2.40;;;2.20;;
77262;SDS011;66373;52.334;4.806;2023-05-02T04:37:47;2.53;;;2.10;;
77262;SDS011;66373;52.334;4.806;2023-05-02T04:40:17;3.05;;;2.20;;
77262;SDS011;66373;52.334;4.806;2023-05-02T04:42:46;2.08;;;1.95;;
77262;SDS011;66373;52.334;4.806;2023-05-02T04:45:20;2.22;;;1.98;;
77262;SDS011;66373;52.334;4.806;2023-05-02T04:47:48;2.45;;;2.03;;
77262;SDS011;66373;52.334;4.806;2023-05-02T04:50:15;2.35;;;2.03;;
77262;SDS011;66373;52.334;4.806;2023-05-02T04:52:43;3.00;;;1.90;;
77262;SDS011;66373;52.334;4.806;2023-05-02T04:55:10;4.88;;;1.92;;
77262;SDS011;66373;52.334;4.806;2023-05-02T04:57:39;2.78;;;1.98;;
77262;SDS011;66373;52.334;4.806;2023-05-02T05:00:11;2.90;;;2.03;;
77262;SDS011;66373;52.334;4.806;2023-05-02T05:02:39;3.33;;;2.22;;
77262;SDS011;66373;52.334;4.806;2023-05-02T05:05:07;3.00;;;2.00;;
77262;SDS011;66373;52.334;4.806;2023-05-02T05:07:35;3.10;;;1.98;;
77262;SDS011;66373;52.334;4.806;2023-05-02T05:10:02;1.90;;;1.75;;
77262;SDS011;66373;52.334;4.806;2023-05-02T05:12:37;2.35;;;2.00;;
77262;SDS011;66373;52.334;4.806;2023-05-02T05:15:07;2.72;;;2.10;;
77262;SDS011;66373;52.334;4.806;2023-05-02T05:17:37;1.95;;;1.83;;
77262;SDS011;66373;52.334;4.806;2023-05-02T05:20:05;2.63;;;2.20;;
77262;SDS011;66373;52.334;4.806;2023-05-02T05:22:37;2.10;;;1.90;;
77262;SDS011;66373;52.334;4.806;2023-05-02T05:25:06;2.92;;;2.17;;
77262;SDS011;66373;52.334;4.806;2023-05-02T05:27:34;1.77;;;1.67;;
77262;SDS011;66373;52.334;4.806;2023-05-02T05:30:03;2.25;;;1.88;;
77262;SDS011;66373;52.334;4.806;2023-05-02T05:32:32;3.08;;;1.90;;
77262;SDS011;66373;52.334;4.806;2023-05-02T05:35:00;2.50;;;1.90;;
77262;SDS011;66373;52.334;4.806;2023-05-02T05:37:27;2.47;;;1.80;;
77262;SDS011;66373;52.334;4.806;2023-05-02T05:39:56;3.70;;;2.03;;
77262;SDS011;66373;52.334;4.806;2023-05-02T05:42:23;1.95;;;1.85;;
77262;SDS011;66373;52.334;4.806;2023-05-02T05:44:55;2.22;;;1.80;;
77262;SDS011;66373;52.334;4.806;2023-05-02T05:47:22;5.13;;;2.25;;
77262;SDS011;66373;52.334;4.806;2023-05-02T05:49:53;2.80;;;2.10;;
77262;SDS011;66373;52.334;4.806;2023-05-02T05:52:22;2.05;;;1.67;;
77262;SDS011;66373;52.334;4.806;2023-05-02T05:54:52;1.92;;;1.70;;
77262;SDS011;66373;52.334;4.806;2023-05-02T05:57:20;2.80;;;2.00;;
77262;SDS011;66373;52.334;4.806;2023-05-02T05:59:47;1.80;;;1.70;;
77262;SDS011;66373;52.334;4.806;2023-05-02T06:02:15;2.50;;;2.00;;
77262;SDS011;66373;52.334;4.806;2023-05-02T06:04:44;2.72;;;1.92;;
77262;SDS011;66373;52.334;4.806;2023-05-02T06:07:14;3.38;;;2.40;;
77262;SDS011;66373;52.334;4.806;2023-05-02T06:09:43;2.72;;;1.95;;
77262;SDS011;66373;52.334;4.806;2023-05-02T06:12:11;2.30;;;1.88;;
77262;SDS011;66373;52.334;4.806;2023-05-02T06:14:38;2.85;;;2.00;;
77262;SDS011;66373;52.334;4.806;2023-05-02T06:17:05;1.63;;;1.52;;
77262;SDS011;66373;52.334;4.806;2023-05-02T06:19:32;2.35;;;2.00;;
77262;SDS011;66373;52.334;4.806;2023-05-02T06:21:59;4.47;;;1.92;;
77262;SDS011;66373;52.334;4.806;2023-05-02T06:24:27;1.80;;;1.70;;
77262;SDS011;66373;52.334;4.806;2023-05-02T06:26:55;3.58;;;2.00;;
77262;SDS011;66373;52.334;4.806;2023-05-02T06:29:22;2.08;;;1.88;;
77262;SDS011;66373;52.334;4.806;2023-05-02T06:31:49;2.30;;;2.00;;
77262;SDS011;66373;52.334;4.806;2023-05-02T06:34:20;2.42;;;2.20;;
77262;SDS011;66373;52.334;4.806;2023-05-02T06:36:47;2.15;;;1.92;;
77262;SDS011;66373;52.334;4.806;2023-05-02T06:39:14;3.90;;;2.00;;
77262;SDS011;66373;52.334;4.806;2023-05-02T06:41:42;2.53;;;1.48;;
77262;SDS011;66373;52.334;4.806;2023-05-02T06:44:14;2.10;;;1.73;;
77262;SDS011;66373;52.334;4.806;2023-05-02T06:46:41;1.70;;;1.60;;
77262;SDS011;66373;52.334;4.806;2023-05-02T06:49:08;2.70;;;1.77;;
77262;SDS011;66373;52.334;4.806;2023-05-02T06:51:36;2.33;;;2.13;;
77262;SDS011;66373;52.334;4.806;2023-05-02T06:54:03;3.03;;;2.20;;
77262;SDS011;66373;52.334;4.806;2023-05-02T06:56:30;2.15;;;1.90;;
77262;SDS011;66373;52.334;4.806;2023-05-02T06:58:58;2.00;;;1.80;;
77262;SDS011;66373;52.334;4.806;2023-05-02T07:01:25;3.15;;;1.88;;
77262;SDS011;66373;52.334;4.806;2023-05-02T07:03:52;4.10;;;2.10;;
77262;SDS011;66373;52.334;4.806;2023-05-02T07:06:19;1.65;;;1.52;;
77262;SDS011;66373;52.334;4.806;2023-05-02T07:08:47;2.13;;;2.03;;
77262;SDS011;66373;52.334;4.806;2023-05-02T07:11:14;2.40;;;1.85;;
77262;SDS011;66373;52.334;4.806;2023-05-02T07:13:41;2.08;;;1.92;;
77262;SDS011;66373;52.334;4.806;2023-05-02T07:16:10;2.40;;;1.77;;
77262;SDS011;66373;52.334;4.806;2023-05-02T07:18:37;3.35;;;1.80;;
77262;SDS011;66373;52.334;4.806;2023-05-02T07:21:04;2.28;;;1.88;;
77262;SDS011;66373;52.334;4.806;2023-05-02T07:23:32;1.88;;;1.77;;
77262;SDS011;66373;52.334;4.806;2023-05-02T07:25:59;1.92;;;1.70;;
77262;SDS011;66373;52.334;4.806;2023-05-02T07:28:28;3.15;;;2.45;;
77262;SDS011;66373;52.334;4.806;2023-05-02T07:30:55;3.08;;;2.03;;
77262;SDS011;66373;52.334;4.806;2023-05-02T07:33:23;3.78;;;1.95;;
77262;SDS011;66373;52.334;4.806;2023-05-02T07:35:50;2.88;;;1.90;;
77262;SDS011;66373;52.334;4.806;2023-05-02T07:38:17;2.58;;;1.95;;
77262;SDS011;66373;52.334;4.806;2023-05-02T07:40:44;3.17;;;2.00;;
77262;SDS011;66373;52.334;4.806;2023-05-02T07:43:12;1.95;;;1.80;;
77262;SDS011;66373;52.334;4.806;2023-05-02T07:45:40;3.00;;;1.90;;
77262;SDS011;66373;52.334;4.806;2023-05-02T07:48:07;2.42;;;1.90;;
77262;SDS011;66373;52.334;4.806;2023-05-02T07:50:35;3.08;;;1.80;;
77262;SDS011;66373;52.334;4.806;2023-05-02T07:53:03;2.10;;;1.90;;
77262;SDS011;66373;52.334;4.806;2023-05-02T07:55:30;3.05;;;2.03;;
77262;SDS011;66373;52.334;4.806;2023-05-02T07:57:57;5.32;;;2.17;;
77262;SDS011;66373;52.334;4.806;2023-05-02T08:00:24;2.58;;;1.90;;
77262;SDS011;66373;52.334;4.806;2023-05-02T08:02:51;1.92;;;1.63;;
77262;SDS011;66373;52.334;4.806;2023-05-02T08:05:18;2.17;;;1.80;;
77262;SDS011;66373;52.334;4.806;2023-05-02T08:07:47;2.08;;;1.80;;
77262;SDS011;66373;52.334;4.806;2023-05-02T08:10:14;1.75;;;1.63;;
77262;SDS011;66373;52.334;4.806;2023-05-02T08:12:41;2.50;;;1.70;;
77262;SDS011;66373;52.334;4.806;2023-05-02T08:15:10;1.77;;;1.55;;
77262;SDS011;66373;52.334;4.806;2023-05-02T08:17:38;1.60;;;1.50;;
77262;SDS011;66373;52.334;4.806;2023-05-02T08:20:06;1.67;;;1.58;;
77262;SDS011;66373;52.334;4.806;2023-05-02T08:22:33;3.25;;;1.73;;
77262;SDS011;66373;52.334;4.806;2023-05-02T08:25:02;1.77;;;1.50;;
77262;SDS011;66373;52.334;4.806;2023-05-02T08:27:30;2.35;;;1.65;;
77262;SDS011;66373;52.334;4.806;2023-05-02T08:29:59;2.50;;;1.83;;
77262;SDS011;66373;52.334;4.806;2023-05-02T08:32:26;2.50;;;1.83;;
77262;SDS011;66373;52.334;4.806;2023-05-02T08:34:54;4.05;;;2.05;;
77262;SDS011;66373;52.334;4.806;2023-05-02T08:37:21;2.75;;;1.92;;
77262;SDS011;66373;52.334;4.806;2023-05-02T08:39:50;3.35;;;1.95;;
77262;SDS011;66373;52.334;4.806;2023-05-02T08:42:18;3.22;;;1.90;;
77262;SDS011;66373;52.334;4.806;2023-05-02T08:44:47;2.38;;;1.70;;
77262;SDS011;66373;52.334;4.806;2023-05-02T08:47:14;4.18;;;1.90;;
77262;SDS011;66373;52.334;4.806;2023-05-02T08:49:44;1.77;;;1.67;;
77262;SDS011;66373;52.334;4.806;2023-05-02T08:52:12;2.50;;;1.83;;
77262;SDS011;66373;52.334;4.806;2023-05-02T08:54:40;1.83;;;1.58;;
77262;SDS011;66373;52.334;4.806;2023-05-02T08:57:08;2.03;;;1.80;;
77262;SDS011;66373;52.334;4.806;2023-05-02T08:59:37;2.80;;;1.50;;
77262;SDS011;66373;52.334;4.806;2023-05-02T09:02:06;1.90;;;1.55;;
77262;SDS011;66373;52.334;4.806;2023-05-02T09:04:43;3.47;;;1.55;;
77262;SDS011;66373;52.334;4.806;2023-05-02T09:07:15;1.70;;;1.60;;
77262;SDS011;66373;52.334;4.806;2023-05-02T09:09:42;2.80;;;1.90;;
77262;SDS011;66373;52.334;4.806;2023-05-02T09:12:09;2.53;;;1.90;;
77262;SDS011;66373;52.334;4.806;2023-05-02T09:14:38;3.70;;;1.63;;
77262;SDS011;66373;52.334;4.806;2023-05-02T09:17:05;2.55;;;1.90;;
77262;SDS011;66373;52.334;4.806;2023-05-02T09:19:32;1.90;;;1.80;;
77262;SDS011;66373;52.334;4.806;2023-05-02T09:21:59;1.80;;;1.70;;
77262;SDS011;66373;52.334;4.806;2023-05-02T09:24:27;3.05;;;1.90;;
77262;SDS011;66373;52.334;4.806;2023-05-02T09:26:56;2.83;;;1.90;;
77262;SDS011;66373;52.334;4.806;2023-05-02T09:29:26;4.65;;;1.65;;
77262;SDS011;66373;52.334;4.806;2023-05-02T09:31:56;1.70;;;1.55;;
77262;SDS011;66373;52.334;4.806;2023-05-02T09:34:24;4.13;;;1.90;;
77262;SDS011;66373;52.334;4.806;2023-05-02T09:36:51;2.22;;;1.70;;
77262;SDS011;66373;52.334;4.806;2023-05-02T09:39:20;1.60;;;1.50;;
77262;SDS011;66373;52.334;4.806;2023-05-02T09:41:48;3.00;;;1.65;;
77262;SDS011;66373;52.334;4.806;2023-05-02T09:44:15;3.40;;;1.70;;
77262;SDS011;66373;52.334;4.806;2023-05-02T09:46:44;3.08;;;1.65;;
77262;SDS011;66373;52.334;4.806;2023-05-02T09:49:14;2.08;;;1.60;;
77262;SDS011;66373;52.334;4.806;2023-05-02T09:51:43;2.35;;;1.75;;
77262;SDS011;66373;52.334;4.806;2023-05-02T09:54:11;1.75;;;1.65;;
77262;SDS011;66373;52.334;4.806;2023-05-02T09:56:51;1.80;;;1.60;;
77262;SDS011;66373;52.334;4.806;2023-05-02T09:59:20;3.05;;;1.80;;
77262;SDS011;66373;52.334;4.806;2023-05-02T10:01:58;2.83;;;1.60;;
77262;SDS011;66373;52.334;4.806;2023-05-02T10:04:27;2.70;;;2.00;;
77262;SDS011;66373;52.334;4.806;2023-05-02T10:06:56;3.33;;;1.95;;
77262;SDS011;66373;52.334;4.806;2023-05-02T10:09:24;1.70;;;1.60;;
77262;SDS011;66373;52.334;4.806;2023-05-02T10:11:52;2.25;;;2.00;;
77262;SDS011;66373;52.334;4.806;2023-05-02T10:14:21;1.98;;;1.60;;
77262;SDS011;66373;52.334;4.806;2023-05-02T10:16:54;1.80;;;1.70;;
77262;SDS011;66373;52.334;4.806;2023-05-02T10:19:28;4.03;;;1.90;;
77262;SDS011;66373;52.334;4.806;2023-05-02T10:21:59;1.75;;;1.63;;
77262;SDS011;66373;52.334;4.806;2023-05-02T10:24:29;3.30;;;1.88;;
77262;SDS011;66373;52.334;4.806;2023-05-02T10:26:58;2.13;;;1.70;;
77262;SDS011;66373;52.334;4.806;2023-05-02T10:29:27;1.83;;;1.70;;
77262;SDS011;66373;52.334;4.806;2023-05-02T10:31:55;3.22;;;1.60;;
77262;SDS011;66373;52.334;4.806;2023-05-02T10:34:23;2.03;;;1.90;;
77262;SDS011;66373;52.334;4.806;2023-05-02T10:36:52;3.38;;;1.75;;
77262;SDS011;66373;52.334;4.806;2023-05-02T10:39:20;3.55;;;1.80;;
77262;SDS011;66373;52.334;4.806;2023-05-02T10:41:49;3.88;;;2.17;;
77262;SDS011;66373;52.334;4.806;2023-05-02T10:44:30;2.83;;;1.60;;
77262;SDS011;66373;52.334;4.806;2023-05-02T10:46:58;3.35;;;1.70;;
77262;SDS011;66373;52.334;4.806;2023-05-02T10:49:25;2.45;;;1.40;;
77262;SDS011;66373;52.334;4.806;2023-05-02T10:51:55;2.03;;;1.50;;
77262;SDS011;66373;52.334;4.806;2023-05-02T10:54:23;2.10;;;1.60;;
77262;SDS011;66373;52.334;4.806;2023-05-02T10:57:00;4.07;;;2.20;;
77262;SDS011;66373;52.334;4.806;2023-05-02T10:59:30;4.63;;;1.90;;
77262;SDS011;66373;52.334;4.806;2023-05-02T11:01:58;1.90;;;1.80;;
77262;SDS011;66373;52.334;4.806;2023-05-02T11:07:29;2.35;;;1.73;;
77262;SDS011;66373;52.334;4.806;2023-05-02T11:12:53;4.40;;;1.67;;
77262;SDS011;66373;52.334;4.806;2023-05-02T11:18:21;3.65;;;2.00;;
77262;SDS011;66373;52.334;4.806;2023-05-02T11:20:48;2.72;;;2.15;;
77262;SDS011;66373;52.334;4.806;2023-05-02T11:23:21;4.10;;;2.47;;
77262;SDS011;66373;52.334;4.806;2023-05-02T11:25:52;4.18;;;2.63;;
77262;SDS011;66373;52.334;4.806;2023-05-02T11:34:08;2.58;;;1.95;;
77262;SDS011;66373;52.334;4.806;2023-05-02T11:36:35;3.28;;;2.03;;
77262;SDS011;66373;52.334;4.806;2023-05-02T11:39:03;3.50;;;2.30;;
77262;SDS011;66373;52.334;4.806;2023-05-02T11:41:43;3.17;;;2.00;;
77262;SDS011;66373;52.334;4.806;2023-05-02T11:44:12;3.75;;;2.35;;
77262;SDS011;66373;52.334;4.806;2023-05-02T11:46:40;3.88;;;2.47;;
77262;SDS011;66373;52.334;4.806;2023-05-02T11:49:07;4.68;;;2.15;;
77262;SDS011;66373;52.334;4.806;2023-05-02T11:51:37;6.40;;;2.90;;
77262;SDS011;66373;52.334;4.806;2023-05-02T11:54:06;4.57;;;2.60;;
77262;SDS011;66373;52.334;4.806;2023-05-02T11:56:34;4.95;;;2.33;;
77262;SDS011;66373;52.334;4.806;2023-05-02T11:59:02;2.88;;;2.40;;
77262;SDS011;66373;52.334;4.806;2023-05-02T12:01:30;4.93;;;2.40;;
77262;SDS011;66373;52.334;4.806;2023-05-02T12:04:00;3.40;;;2.47;;
77262;SDS011;66373;52.334;4.806;2023-05-02T12:06:29;3.40;;;2.50;;
77262;SDS011;66373;52.334;4.806;2023-05-02T12:09:06;3.20;;;2.40;;
77262;SDS011;66373;52.334;4.806;2023-05-02T12:14:02;3.28;;;2.20;;
77262;SDS011;66373;52.334;4.806;2023-05-02T12:16:30;4.78;;;2.70;;
77262;SDS011;66373;52.334;4.806;2023-05-02T12:18:57;8.27;;;2.95;;
77262;SDS011;66373;52.334;4.806;2023-05-02T12:21:25;9.98;;;2.72;;
77262;SDS011;66373;52.334;4.806;2023-05-02T12:23:57;9.40;;;3.20;;
77262;SDS011;66373;52.334;4.806;2023-05-02T12:26:26;8.63;;;3.30;;
77262;SDS011;66373;52.334;4.806;2023-05-02T12:28:57;6.20;;;2.80;;
77262;SDS011;66373;52.334;4.806;2023-05-02T12:31:25;7.15;;;3.00;;
77262;SDS011;66373;52.334;4.806;2023-05-02T12:33:53;5.68;;;2.80;;
77262;SDS011;66373;52.334;4.806;2023-05-02T12:36:21;6.90;;;2.70;;
77262;SDS011;66373;52.334;4.806;2023-05-02T12:38:49;6.68;;;2.65;;
77262;SDS011;66373;52.334;4.806;2023-05-02T12:41:17;7.63;;;3.17;;
77262;SDS011;66373;52.334;4.806;2023-05-02T12:43:47;9.05;;;2.90;;
77262;SDS011;66373;52.334;4.806;2023-05-02T12:46:15;6.72;;;2.60;;
77262;SDS011;66373;52.334;4.806;2023-05-02T12:48:42;4.50;;;2.38;;
77262;SDS011;66373;52.334;4.806;2023-05-02T12:51:19;6.95;;;3.08;;
77262;SDS011;66373;52.334;4.806;2023-05-02T12:53:47;4.88;;;2.60;;
77262;SDS011;66373;52.334;4.806;2023-05-02T12:56:15;6.13;;;2.88;;
77262;SDS011;66373;52.334;4.806;2023-05-02T12:58:42;5.20;;;2.30;;
77262;SDS011;66373;52.334;4.806;2023-05-02T13:01:12;7.50;;;3.05;;
77262;SDS011;66373;52.334;4.806;2023-05-02T13:03:40;6.80;;;2.65;;
77262;SDS011;66373;52.334;4.806;2023-05-02T13:06:08;11.57;;;2.75;;
77262;SDS011;66373;52.334;4.806;2023-05-02T13:08:36;4.70;;;2.72;;
77262;SDS011;66373;52.334;4.806;2023-05-02T13:11:03;5.05;;;2.63;;
77262;SDS011;66373;52.334;4.806;2023-05-02T13:13:31;6.25;;;2.80;;
77262;SDS011;66373;52.334;4.806;2023-05-02T13:15:59;10.55;;;2.55;;
77262;SDS011;66373;52.334;4.806;2023-05-02T13:18:29;7.47;;;2.63;;
77262;SDS011;66373;52.334;4.806;2023-05-02T13:20:56;4.75;;;2.47;;
77262;SDS011;66373;52.334;4.806;2023-05-02T13:23:23;3.25;;;2.55;;
77262;SDS011;66373;52.334;4.806;2023-05-02T13:25:50;4.18;;;2.28;;
77262;SDS011;66373;52.334;4.806;2023-05-02T13:28:17;8.65;;;2.65;;
77262;SDS011;66373;52.334;4.806;2023-05-02T13:30:44;6.60;;;2.60;;
77262;SDS011;66373;52.334;4.806;2023-05-02T13:33:11;4.55;;;2.50;;
77262;SDS011;66373;52.334;4.806;2023-05-02T13:35:40;4.80;;;2.17;;
77262;SDS011;66373;52.334;4.806;2023-05-02T13:38:07;6.32;;;2.67;;
77262;SDS011;66373;52.334;4.806;2023-05-02T13:40:34;3.80;;;2.35;;
77262;SDS011;66373;52.334;4.806;2023-05-02T13:43:01;3.92;;;2.42;;
77262;SDS011;66373;52.334;4.806;2023-05-02T13:45:28;4.07;;;2.33;;
77262;SDS011;66373;52.334;4.806;2023-05-02T13:47:55;2.33;;;2.10;;
77262;SDS011;66373;52.334;4.806;2023-05-02T13:50:22;5.30;;;2.30;;
77262;SDS011;66373;52.334;4.806;2023-05-02T13:52:50;4.38;;;2.30;;
77262;SDS011;66373;52.334;4.806;2023-05-02T13:55:17;5.40;;;2.60;;
77262;SDS011;66373;52.334;4.806;2023-05-02T13:57:44;3.72;;;2.17;;
77262;SDS011;66373;52.334;4.806;2023-05-02T14:00:12;3.30;;;2.13;;
77262;SDS011;66373;52.334;4.806;2023-05-02T14:02:40;4.20;;;2.30;;
77262;SDS011;66373;52.334;4.806;2023-05-02T14:05:07;5.93;;;2.50;;
77262;SDS011;66373;52.334;4.806;2023-05-02T14:07:35;3.10;;;2.38;;
77262;SDS011;66373;52.334;4.806;2023-05-02T14:10:04;2.97;;;2.10;;
77262;SDS011;66373;52.334;4.806;2023-05-02T14:12:32;6.10;;;2.53;;
77262;SDS011;66373;52.334;4.806;2023-05-02T14:14:59;3.85;;;2.30;;
77262;SDS011;66373;52.334;4.806;2023-05-02T14:17:26;2.90;;;2.20;;
77262;SDS011;66373;52.334;4.806;2023-05-02T14:19:53;4.80;;;2.50;;
77262;SDS011;66373;52.334;4.806;2023-05-02T14:22:20;4.90;;;2.40;;
77262;SDS011;66373;52.334;4.806;2023-05-02T14:24:49;4.72;;;2.50;;
77262;SDS011;66373;52.334;4.806;2023-05-02T14:27:18;3.85;;;2.50;;
77262;SDS011;66373;52.334;4.806;2023-05-02T14:29:46;4.75;;;2.10;;
77262;SDS011;66373;52.334;4.806;2023-05-02T14:32:13;2.67;;;1.88;;
77262;SDS011;66373;52.334;4.806;2023-05-02T14:34:40;4.50;;;2.15;;
77262;SDS011;66373;52.334;4.806;2023-05-02T14:37:07;4.28;;;2.47;;
77262;SDS011;66373;52.334;4.806;2023-05-02T14:39:35;2.85;;;2.35;;
77262;SDS011;66373;52.334;4.806;2023-05-02T14:42:03;5.25;;;2.22;;
77262;SDS011;66373;52.334;4.806;2023-05-02T14:44:32;2.40;;;2.20;;
77262;SDS011;66373;52.334;4.806;2023-05-02T14:46:59;2.58;;;2.08;;
77262;SDS011;66373;52.334;4.806;2023-05-02T14:49:27;5.30;;;2.28;;
77262;SDS011;66373;52.334;4.806;2023-05-02T14:51:54;2.78;;;1.80;;
77262;SDS011;66373;52.334;4.806;2023-05-02T14:54:24;2.95;;;2.22;;
77262;SDS011;66373;52.334;4.806;2023-05-02T14:56:52;3.97;;;2.08;;
77262;SDS011;66373;52.334;4.806;2023-05-02T14:59:20;3.33;;;2.50;;
77262;SDS011;66373;52.334;4.806;2023-05-02T15:01:48;2.40;;;2.10;;
77262;SDS011;66373;52.334;4.806;2023-05-02T15:04:17;3.97;;;2.10;;
77262;SDS011;66373;52.334;4.806;2023-05-02T15:06:44;2.22;;;2.10;;
77262;SDS011;66373;52.334;4.806;2023-05-02T15:09:12;4.00;;;2.13;;
77262;SDS011;66373;52.334;4.806;2023-05-02T15:11:40;4.53;;;2.40;;
77262;SDS011;66373;52.334;4.806;2023-05-02T15:14:07;2.90;;;2.08;;
77262;SDS011;66373;52.334;4.806;2023-05-02T15:16:34;3.58;;;2.10;;
77262;SDS011;66373;52.334;4.806;2023-05-02T15:19:04;2.83;;;2.05;;